createdAt,value
2019-04-25T00:00:31.448Z,30.90
2019-04-25T00:03:02.825Z,31.10
2019-04-25T00:05:34.660Z,31.30
2019-04-25T00:08:06.647Z,31.60
2019-04-25T00:10:36.984Z,31.90
2019-04-25T00:13:11.726Z,32.30
2019-04-25T00:15:44.975Z,32.60
2019-04-25T00:18:16.456Z,33.00
2019-04-25T00:20:48.748Z,33.30
2019-04-25T00:23:21.687Z,33.60
2019-04-25T00:25:54.601Z,33.80
2019-04-25T00:28:26.281Z,34.10
2019-04-25T00:30:58.027Z,34.40
2019-04-25T00:33:28.480Z,34.70
2019-04-25T00:36:02.115Z,34.90
2019-04-25T00:38:32.761Z,35.20
2019-04-25T00:41:04.418Z,35.50
2019-04-25T00:43:34.892Z,35.70
2019-04-25T00:46:05.964Z,35.90
2019-04-25T00:48:37.579Z,36.10
2019-04-25T00:51:07.689Z,36.40
2019-04-25T00:53:43.432Z,36.60
2019-04-25T00:56:15.165Z,36.90
2019-04-25T00:58:48.822Z,37.00
2019-04-25T01:01:21.834Z,37.20
2019-04-25T01:03:54.451Z,37.30
2019-04-25T01:06:25.435Z,37.40
2019-04-25T01:08:57.259Z,37.60
2019-04-25T01:11:28.351Z,37.80
2019-04-25T01:13:59.610Z,37.90
2019-04-25T01:16:31.807Z,38.00
2019-04-25T01:19:03.522Z,38.20
2019-04-25T01:21:34.855Z,38.30
2019-04-25T01:24:06.807Z,38.40
2019-04-25T01:26:38.419Z,38.60
2019-04-25T01:29:10.421Z,38.70
2019-04-25T01:31:43.376Z,38.80
2019-04-25T01:34:16.061Z,38.90
2019-04-25T01:36:48.934Z,39.10
2019-04-25T01:39:21.824Z,39.20
2019-04-25T01:41:55.249Z,39.40
2019-04-25T01:44:28.728Z,39.70
2019-04-25T01:47:00.322Z,40.00
2019-04-25T01:49:33.904Z,40.40
2019-04-25T01:52:04.804Z,40.70
2019-04-25T01:54:35.455Z,40.90
2019-04-25T01:57:07.347Z,41.10
2019-04-25T01:59:38.602Z,41.20
2019-04-25T02:02:10.403Z,41.40
2019-04-25T02:04:41.726Z,41.50
2019-04-25T02:07:13.488Z,41.80
2019-04-25T02:09:45.220Z,41.80
2019-04-25T02:12:20.228Z,41.90
2019-04-25T02:14:52.677Z,42.00
2019-04-25T02:17:24.236Z,42.20
2019-04-25T02:19:56.708Z,42.40
2019-04-25T02:22:28.030Z,42.60
2019-04-25T02:25:00.272Z,42.70
2019-04-25T02:27:31.867Z,42.90
2019-04-25T02:30:06.505Z,43.00
2019-04-25T02:32:37.183Z,43.10
2019-04-25T02:35:10.164Z,43.10
2019-04-25T02:37:41.927Z,43.20
2019-04-25T02:40:14.331Z,43.20
2019-04-25T02:42:46.110Z,43.40
2019-04-25T02:45:20.703Z,43.50
2019-04-25T02:47:55.077Z,43.60
2019-04-25T02:50:27.035Z,43.60
2019-04-25T02:52:59.861Z,43.70
2019-04-25T02:55:34.232Z,43.80
2019-04-25T02:58:08.120Z,43.90
2019-04-25T03:00:51.358Z,44.00
2019-04-25T03:03:10.307Z,44.20
2019-04-25T03:05:42.170Z,44.10
2019-04-25T03:08:14.278Z,44.00
2019-04-25T03:10:45.696Z,43.90
2019-04-25T03:13:17.365Z,43.60
2019-04-25T03:15:52.536Z,43.00
2019-04-25T03:18:24.733Z,42.70
2019-04-25T03:20:59.175Z,42.50
2019-04-25T03:23:34.988Z,42.60
2019-04-25T03:26:06.139Z,42.70
2019-04-25T03:28:38.408Z,42.80
2019-04-25T03:31:17.852Z,42.90
2019-04-25T03:33:45.438Z,42.70
2019-04-25T03:36:17.003Z,42.30
2019-04-25T03:38:48.560Z,41.90
2019-04-25T03:41:19.970Z,41.40
2019-04-25T03:43:51.692Z,41.00
2019-04-25T03:46:23.557Z,40.70
2019-04-25T03:48:54.757Z,40.50
2019-04-25T03:51:25.344Z,40.30
2019-04-25T03:53:56.652Z,40.00
2019-04-25T03:56:27.939Z,39.90
2019-04-25T03:58:58.320Z,39.80
2019-04-25T04:01:29.442Z,39.60
2019-04-25T04:04:00.443Z,39.50
2019-04-25T04:06:33.903Z,39.40
2019-04-25T04:09:06.741Z,39.40
2019-04-25T04:11:39.513Z,39.40
2019-04-25T04:14:10.955Z,39.30
2019-04-25T04:16:44.323Z,39.30
2019-04-25T04:19:16.700Z,39.30
2019-04-25T04:21:49.264Z,39.30
2019-04-25T04:24:23.862Z,39.40
2019-04-25T04:27:03.177Z,39.50
2019-04-25T04:29:28.266Z,39.70
2019-04-25T04:32:00.413Z,39.80
2019-04-25T04:34:31.616Z,39.80
2019-04-25T04:37:03.688Z,39.80
2019-04-25T04:39:35.575Z,39.90
2019-04-25T04:42:07.561Z,39.90
2019-04-25T04:44:40.051Z,40.00
2019-04-25T04:47:12.017Z,40.10
2019-04-25T04:49:43.981Z,40.30
2019-04-25T04:52:15.854Z,40.40
2019-04-25T04:54:47.645Z,40.50
2019-04-25T04:57:28.857Z,40.60
2019-04-25T04:59:53.483Z,40.80
2019-04-25T05:02:26.441Z,40.90
2019-04-25T05:05:01.318Z,40.90
2019-04-25T05:07:34.357Z,40.90
2019-04-25T05:10:07.461Z,40.80
2019-04-25T05:12:38.739Z,40.80
2019-04-25T05:15:09.186Z,40.60
2019-04-25T05:17:40.388Z,40.70
2019-04-25T05:20:10.549Z,40.60
2019-04-25T05:22:41.966Z,40.70
2019-04-25T05:25:16.206Z,40.60
2019-04-25T05:27:59.648Z,40.60
2019-04-25T05:30:23.612Z,40.60
2019-04-25T05:32:55.540Z,40.60
2019-04-25T05:35:27.205Z,40.60
2019-04-25T05:37:58.979Z,40.60
2019-04-25T05:40:30.759Z,40.60
2019-04-25T05:43:03.594Z,40.60
2019-04-25T05:45:35.915Z,40.60
2019-04-25T05:48:07.527Z,40.60
2019-04-25T05:50:38.832Z,40.60
2019-04-25T05:53:10.481Z,40.50
2019-04-25T05:55:41.823Z,40.50
2019-04-25T05:58:13.859Z,40.40
2019-04-25T06:00:45.440Z,40.40
2019-04-25T06:03:17.224Z,40.50
2019-04-25T06:05:48.899Z,40.50
2019-04-25T06:36:10.707Z,40.60
2019-04-25T06:38:44.279Z,40.40
2019-04-25T06:41:14.957Z,40.30
2019-04-25T06:43:46.695Z,40.30
2019-04-25T06:46:20.204Z,40.30
2019-04-25T06:48:53.563Z,40.30
2019-04-25T06:51:27.281Z,40.20
2019-04-25T06:53:59.443Z,40.20
2019-04-25T06:56:31.250Z,40.00
2019-04-25T06:59:03.467Z,40.00
2019-04-25T07:01:34.943Z,39.90
2019-04-25T07:04:06.858Z,39.80
2019-04-25T07:06:38.695Z,39.70
2019-04-25T07:09:11.935Z,39.70
2019-04-25T07:11:44.033Z,39.70
2019-04-25T07:14:15.608Z,39.70
2019-04-25T07:16:47.492Z,39.70
2019-04-25T07:19:19.218Z,39.70
2019-04-25T07:21:50.952Z,39.70
2019-04-25T07:24:22.093Z,39.70
2019-04-25T07:26:55.490Z,39.80
2019-04-25T07:29:28.476Z,39.80
2019-04-25T07:32:00.984Z,39.90
2019-04-25T07:34:33.885Z,39.90
2019-04-25T07:37:05.316Z,39.90
2019-04-25T07:39:37.081Z,39.80
2019-04-25T07:42:08.801Z,39.80
2019-04-25T07:44:49.793Z,39.80
2019-04-25T07:47:13.674Z,39.80
2019-04-25T07:49:46.473Z,39.70
2019-04-25T07:52:18.233Z,39.70
2019-04-25T07:54:49.958Z,39.70
2019-04-25T07:57:21.547Z,39.60
2019-04-25T07:59:53.677Z,39.60
2019-04-25T08:02:25.644Z,39.60
2019-04-25T08:04:57.382Z,39.60
2019-04-25T08:07:29.676Z,39.60
2019-04-25T08:10:01.510Z,39.50
2019-04-25T08:12:34.670Z,39.40
2019-04-25T08:15:08.822Z,39.40
2019-04-25T08:17:41.071Z,39.30
2019-04-25T08:20:14.993Z,39.30
2019-04-25T08:22:55.811Z,39.30
2019-04-25T08:25:20.367Z,39.20
2019-04-25T08:27:51.454Z,39.20
2019-04-25T08:30:23.981Z,39.10
2019-04-25T08:32:55.418Z,39.00
2019-04-25T08:35:25.317Z,39.00
2019-04-25T08:37:57.042Z,38.90
2019-04-25T08:40:30.088Z,38.80
2019-04-25T08:43:00.948Z,38.70
2019-04-25T08:45:33.090Z,38.60
2019-04-25T08:48:05.220Z,38.60
2019-04-25T08:50:40.155Z,38.50
2019-04-25T08:53:10.566Z,38.40
2019-04-25T08:55:44.450Z,38.30
2019-04-25T08:58:17.710Z,38.20
2019-04-25T09:00:59.251Z,38.20
2019-04-25T09:03:24.568Z,38.10
2019-04-25T09:05:57.200Z,38.20
2019-04-25T09:08:29.433Z,38.20
2019-04-25T09:11:01.023Z,38.30
2019-04-25T09:13:35.396Z,38.30
2019-04-25T09:16:05.738Z,38.40
2019-04-25T09:18:38.139Z,38.40
2019-04-25T09:21:10.269Z,38.50
2019-04-25T09:23:43.383Z,38.50
2019-04-25T09:26:15.425Z,38.60
2019-04-25T09:28:47.187Z,38.60
2019-04-25T09:31:18.820Z,38.60
2019-04-25T09:33:51.490Z,38.60
2019-04-25T09:36:24.070Z,38.60
2019-04-25T09:38:56.827Z,38.60
2019-04-25T09:41:28.573Z,38.70
2019-04-25T09:44:01.542Z,38.70
2019-04-25T09:46:35.907Z,38.60
2019-04-25T09:49:08.532Z,38.70
2019-04-25T09:51:42.380Z,38.70
2019-04-25T09:54:15.504Z,38.70
2019-04-25T09:56:48.392Z,38.70
2019-04-25T09:59:27.380Z,38.70
2019-04-25T10:01:53.332Z,38.70
2019-04-25T10:04:25.064Z,38.70
2019-04-25T10:06:56.842Z,38.70
2019-04-25T10:09:28.590Z,38.70
2019-04-25T10:12:00.028Z,38.70
2019-04-25T10:14:31.519Z,38.60
2019-04-25T10:17:03.786Z,38.60
2019-04-25T10:19:35.639Z,38.50
2019-04-25T10:22:07.743Z,38.50
2019-04-25T10:24:39.716Z,38.40
2019-04-25T10:27:11.720Z,38.40
2019-04-25T10:29:50.935Z,38.30
2019-04-25T10:32:17.252Z,38.30
2019-04-25T10:34:49.010Z,38.20
2019-04-25T10:37:20.182Z,38.10
2019-04-25T10:39:51.467Z,38.00
2019-04-25T10:42:23.885Z,38.00
2019-04-25T10:44:56.610Z,37.90
2019-04-25T10:47:28.410Z,37.80
2019-04-25T10:49:59.675Z,37.60
2019-04-25T10:52:30.982Z,37.50
2019-04-25T10:55:04.073Z,37.30
2019-04-25T10:57:34.993Z,37.20
2019-04-25T11:00:10.033Z,37.10
2019-04-25T11:02:42.380Z,37.00
2019-04-25T11:05:19.015Z,36.90
2019-04-25T11:07:50.728Z,36.70
2019-04-25T11:10:23.597Z,36.60
2019-04-25T11:12:55.220Z,36.40
2019-04-25T11:15:26.113Z,36.40
2019-04-25T11:17:56.929Z,36.20
2019-04-25T11:20:30.096Z,36.20
2019-04-25T11:23:01.265Z,36.10
2019-04-25T11:25:33.986Z,36.00
2019-04-25T11:28:07.540Z,35.90
2019-04-25T11:30:39.183Z,35.90
2019-04-25T11:33:10.660Z,35.80
2019-04-25T11:35:42.086Z,35.70
2019-04-25T11:38:14.691Z,35.70
2019-04-25T11:40:49.972Z,35.60
2019-04-25T11:43:21.199Z,35.50
2019-04-25T11:45:55.534Z,35.40
2019-04-25T11:48:26.219Z,35.40
2019-04-25T11:50:58.031Z,35.30
2019-04-25T11:53:29.726Z,35.30
2019-04-25T11:56:00.297Z,35.20
2019-04-25T11:58:32.161Z,35.10
2019-04-25T12:01:05.132Z,35.00
2019-04-25T12:03:36.803Z,34.90
2019-04-25T12:06:11.083Z,34.90
2019-04-25T12:08:41.328Z,34.80
2019-04-25T12:11:13.898Z,34.70
2019-04-25T12:13:46.914Z,34.60
2019-04-25T12:16:18.947Z,34.60
2019-04-25T12:18:51.707Z,34.50
2019-04-25T12:21:23.967Z,34.40
2019-04-25T12:23:55.363Z,34.30
2019-04-25T12:26:27.252Z,34.30
2019-04-25T12:28:59.017Z,34.20
2019-04-25T12:31:30.355Z,34.10
2019-04-25T12:34:03.300Z,34.10
2019-04-25T12:36:34.573Z,34.00
2019-04-25T12:39:07.693Z,33.90
2019-04-25T12:41:39.423Z,33.90
2019-04-25T12:44:12.197Z,33.80
2019-04-25T12:46:46.028Z,33.70
2019-04-25T12:49:17.254Z,33.60
2019-04-25T12:51:49.784Z,33.50
2019-04-25T12:54:21.052Z,33.40
2019-04-25T12:56:53.632Z,33.40
2019-04-25T12:59:25.424Z,33.40
2019-04-25T13:01:57.431Z,33.40
2019-04-25T13:04:29.134Z,33.20
2019-04-25T13:07:00.941Z,33.20
2019-04-25T13:09:31.451Z,33.00
2019-04-25T13:12:04.386Z,33.00
2019-04-25T13:14:35.784Z,32.90
2019-04-25T13:17:08.717Z,32.80
2019-04-25T13:19:41.344Z,32.70
2019-04-25T13:22:13.616Z,32.70
2019-04-25T13:24:45.398Z,32.60
2019-04-25T13:27:18.240Z,32.60
2019-04-25T13:29:51.231Z,32.50
2019-04-25T13:32:24.220Z,32.40
2019-04-25T13:34:57.150Z,32.30
2019-04-25T13:37:28.411Z,32.20
2019-04-25T13:40:00.579Z,32.10
2019-04-25T13:42:33.342Z,32.10
2019-04-25T13:45:05.396Z,32.00
2019-04-25T13:47:35.737Z,31.90
2019-04-25T13:50:09.766Z,31.90
2019-04-25T13:52:43.168Z,31.90
2019-04-25T13:55:14.472Z,31.90
2019-04-25T13:57:46.229Z,31.80
2019-04-25T14:00:20.560Z,31.80
2019-04-25T14:02:52.122Z,31.70
2019-04-25T14:05:24.933Z,31.70
2019-04-25T14:07:57.886Z,31.70
2019-04-25T14:10:30.067Z,31.60
2019-04-25T14:13:03.417Z,31.60
2019-04-25T14:15:35.150Z,31.50
2019-04-25T14:18:06.469Z,31.40
2019-04-25T14:20:39.568Z,31.40
2019-04-25T14:23:12.952Z,31.40
2019-04-25T14:25:43.907Z,31.40
2019-04-25T14:28:15.682Z,31.40
2019-04-25T14:30:47.449Z,31.40
2019-04-25T14:33:19.201Z,31.40
2019-04-25T14:35:50.493Z,31.40
2019-04-25T14:38:22.705Z,31.40
2019-04-25T14:40:54.894Z,31.50
2019-04-25T14:43:26.695Z,31.50
2019-04-25T14:45:59.317Z,31.60
2019-04-25T14:48:30.266Z,31.60
2019-04-25T14:51:01.080Z,31.60
2019-04-25T14:53:33.618Z,31.60
2019-04-25T14:56:05.840Z,31.60
2019-04-25T14:58:37.910Z,31.60
2019-04-25T15:01:08.082Z,31.60
2019-04-25T15:03:39.660Z,31.60
2019-04-25T15:06:10.662Z,31.60
2019-04-25T15:08:41.665Z,31.60
2019-04-25T15:11:12.964Z,31.60
2019-04-25T15:13:43.808Z,31.60
2019-04-25T15:16:14.645Z,31.60
2019-04-25T15:18:47.088Z,31.60
2019-04-25T15:21:18.944Z,31.60
2019-04-25T15:23:59.973Z,31.60
2019-04-25T15:26:24.608Z,31.60
2019-04-25T15:28:56.360Z,31.50
2019-04-25T15:31:27.428Z,31.50
2019-04-25T15:33:59.285Z,31.50
2019-04-25T15:36:32.053Z,31.50
2019-04-25T15:39:04.565Z,31.50
2019-04-25T15:41:37.481Z,31.50
2019-04-25T15:44:10.719Z,31.50
2019-04-25T15:46:43.425Z,31.50
2019-04-25T15:49:14.460Z,31.50
2019-04-25T15:51:46.202Z,31.40
2019-04-25T15:54:17.962Z,31.40
2019-04-25T15:56:50.030Z,31.40
2019-04-25T15:59:21.763Z,31.30
2019-04-25T16:01:53.215Z,31.30
2019-04-25T16:04:25.710Z,31.30
2019-04-25T16:06:58.272Z,31.20
2019-04-25T16:09:30.021Z,31.20
2019-04-25T16:12:07.404Z,31.10
2019-04-25T16:14:34.259Z,31.00
2019-04-25T16:17:06.253Z,30.90
2019-04-25T16:19:36.847Z,30.90
2019-04-25T16:22:08.622Z,30.80
2019-04-25T16:24:41.029Z,30.70
2019-04-25T16:27:13.516Z,30.60
2019-04-25T16:29:45.358Z,30.60
2019-04-25T16:32:20.677Z,30.50
2019-04-25T16:34:51.181Z,30.50
2019-04-25T16:37:22.797Z,30.40
2019-04-25T16:39:54.107Z,30.40
2019-04-25T16:42:25.461Z,30.40
2019-04-25T16:44:57.063Z,30.30
2019-04-25T16:47:29.926Z,30.30
2019-04-25T16:50:01.863Z,30.20
2019-04-25T16:52:33.851Z,30.20
2019-04-25T16:55:04.704Z,30.20
2019-04-25T16:57:35.770Z,30.20
2019-04-25T17:00:10.600Z,30.20
2019-04-25T17:02:42.417Z,30.20
2019-04-25T17:05:15.617Z,30.10
2019-04-25T17:07:46.838Z,30.10
2019-04-25T17:10:18.738Z,30.10
2019-04-25T17:12:50.467Z,30.00
2019-04-25T17:15:23.330Z,30.00
2019-04-25T17:17:56.215Z,29.90
2019-04-25T17:20:29.888Z,29.80
2019-04-25T17:23:01.692Z,29.80
2019-04-25T17:25:33.359Z,29.70
2019-04-25T17:28:04.917Z,29.70
2019-04-25T17:30:37.759Z,29.70
2019-04-25T17:33:10.293Z,29.60
2019-04-25T17:35:44.174Z,29.60
2019-04-25T17:38:19.488Z,29.60
2019-04-25T17:40:50.727Z,29.60
2019-04-25T17:43:22.366Z,29.60
2019-04-25T17:45:54.108Z,29.60
2019-04-25T17:48:25.863Z,29.60
2019-04-25T17:50:57.437Z,29.60
2019-04-25T17:53:29.076Z,29.50
2019-04-25T17:56:00.839Z,29.50
2019-04-25T17:58:33.323Z,29.50
2019-04-25T18:01:06.622Z,29.40
2019-04-25T18:03:39.361Z,29.40
2019-04-25T18:06:11.102Z,29.30
2019-04-25T18:08:44.055Z,29.30
2019-04-25T18:11:15.690Z,29.20
2019-04-25T18:13:47.038Z,29.20
2019-04-25T18:16:20.276Z,29.20
2019-04-25T18:18:53.270Z,29.10
2019-04-25T18:21:25.173Z,29.10
2019-04-25T18:24:00.090Z,29.10
2019-04-25T18:26:33.126Z,29.10
2019-04-25T18:29:06.145Z,29.00
2019-04-25T18:31:37.836Z,29.00
2019-04-25T18:34:12.801Z,29.00
2019-04-25T18:36:46.946Z,28.90
2019-04-25T18:39:19.703Z,28.90
2019-04-25T18:41:52.740Z,28.80
2019-04-25T18:44:24.631Z,28.80
2019-04-25T18:46:56.919Z,28.80
2019-04-25T18:49:28.695Z,28.70
2019-04-25T18:52:01.750Z,28.70
2019-04-25T18:54:35.075Z,28.70
2019-04-25T18:57:08.360Z,28.60
2019-04-25T18:59:41.593Z,28.60
2019-04-25T19:02:14.338Z,28.60
2019-04-25T19:04:47.099Z,28.60
2019-04-25T19:07:22.737Z,28.50
2019-04-25T19:13:19.218Z,28.50
2019-04-25T19:15:51.489Z,28.40
2019-04-25T19:18:23.468Z,28.40
2019-04-25T19:20:55.582Z,28.40
2019-04-25T19:23:25.799Z,28.30
2019-04-25T19:25:57.017Z,28.20
2019-04-25T19:28:28.184Z,28.30
2019-04-25T19:30:59.641Z,28.30
2019-04-25T19:33:35.899Z,28.30
2019-04-25T19:36:04.258Z,28.30
2019-04-25T19:38:36.017Z,28.30
2019-04-25T19:41:10.077Z,28.30
2019-04-25T19:43:42.687Z,28.30
2019-04-25T19:46:14.169Z,28.20
2019-04-25T19:48:45.683Z,28.20
2019-04-25T19:51:17.256Z,28.20
2019-04-25T19:53:49.239Z,28.10
2019-04-25T19:56:21.086Z,28.10
2019-04-25T19:58:52.953Z,28.10
2019-04-25T20:01:24.442Z,28.00
2019-04-25T20:03:58.671Z,27.90
2019-04-25T20:06:31.662Z,27.90
2019-04-25T20:09:04.627Z,27.90
2019-04-25T20:11:37.947Z,27.90
2019-04-25T20:14:09.556Z,27.80
2019-04-25T20:16:44.345Z,27.80
2019-04-25T20:19:15.539Z,27.80
2019-04-25T20:21:47.907Z,27.70
2019-04-25T20:24:19.524Z,27.70
2019-04-25T20:26:50.988Z,27.60
2019-04-25T20:29:22.555Z,27.60
2019-04-25T20:31:54.882Z,27.60
2019-04-25T20:34:26.659Z,27.60
2019-04-25T20:36:58.466Z,27.70
2019-04-25T20:39:30.222Z,27.70
2019-04-25T20:42:01.413Z,27.70
2019-04-25T20:44:33.099Z,27.70
2019-04-25T20:47:04.868Z,27.60
2019-04-25T20:49:36.727Z,27.60
2019-04-25T20:52:08.484Z,27.60
2019-04-25T20:54:39.932Z,27.50
2019-04-25T20:57:11.705Z,27.40
2019-04-25T20:59:43.246Z,27.40
2019-04-25T21:02:15.424Z,27.40
2019-04-25T21:04:47.746Z,27.30
2019-04-25T21:07:19.412Z,27.30
2019-04-25T21:09:51.213Z,27.30
2019-04-25T21:12:22.189Z,27.30
2019-04-25T21:14:56.175Z,27.20
2019-04-25T21:17:28.746Z,27.20
2019-04-25T21:20:00.865Z,27.10
2019-04-25T21:22:32.574Z,27.10
2019-04-25T21:25:05.616Z,27.00
2019-04-25T21:27:36.552Z,26.90
2019-04-25T21:30:09.285Z,26.90
2019-04-25T21:32:42.549Z,26.80
2019-04-25T21:35:14.540Z,26.80
2019-04-25T21:37:46.300Z,26.70
2019-04-25T21:40:19.117Z,26.70
2019-04-25T21:42:51.851Z,26.60
2019-04-25T21:45:24.234Z,26.60
2019-04-25T21:47:55.364Z,26.60
2019-04-25T21:50:28.477Z,26.60
2019-04-25T21:53:01.294Z,26.60
2019-04-25T21:55:33.433Z,26.60
2019-04-25T21:58:05.591Z,26.60
2019-04-25T22:00:37.332Z,26.60
2019-04-25T22:03:09.660Z,26.60
2019-04-25T22:05:40.389Z,26.50
2019-04-25T22:08:11.421Z,26.50
2019-04-25T22:10:42.911Z,26.50
2019-04-25T22:13:17.183Z,26.40
2019-04-25T22:15:47.324Z,26.40
2019-04-25T22:18:19.057Z,26.40
2019-04-25T22:20:50.777Z,26.40
2019-04-25T22:23:22.893Z,26.40
2019-04-25T22:25:54.906Z,26.40
2019-04-25T22:28:26.906Z,26.40
2019-04-25T22:31:00.071Z,26.40
2019-04-25T22:33:32.749Z,26.40
2019-04-25T22:36:06.072Z,26.30
2019-04-25T22:38:37.419Z,26.30
2019-04-25T22:41:09.102Z,26.30
2019-04-25T22:43:41.886Z,26.30
2019-04-25T22:46:25.474Z,26.20
2019-04-25T22:48:47.852Z,26.10
2019-04-25T22:51:19.979Z,26.10
2019-04-25T22:53:51.975Z,26.10
2019-04-25T22:56:23.449Z,26.10
2019-04-25T22:58:54.668Z,26.00
2019-04-25T23:01:27.885Z,26.00
2019-04-25T23:04:00.992Z,26.10
2019-04-25T23:06:32.939Z,26.10
2019-04-25T23:09:04.678Z,26.20
2019-04-25T23:11:36.366Z,26.30
2019-04-25T23:14:08.829Z,26.30
2019-04-25T23:16:39.477Z,26.40
2019-04-25T23:19:11.251Z,26.50
2019-04-25T23:21:42.929Z,26.60
2019-04-25T23:24:15.748Z,26.70
2019-04-25T23:26:48.613Z,26.90
2019-04-25T23:29:20.015Z,27.00
2019-04-25T23:31:51.471Z,27.20
2019-04-25T23:34:23.163Z,27.40
2019-04-25T23:36:54.643Z,27.70
2019-04-25T23:39:26.742Z,28.00
2019-04-25T23:41:58.147Z,28.20
2019-04-25T23:44:29.831Z,28.50
2019-04-25T23:47:01.591Z,28.70
2019-04-25T23:49:33.474Z,29.00
2019-04-25T23:52:03.830Z,29.30
2019-04-25T23:54:35.368Z,29.60
2019-04-25T23:57:07.025Z,29.90
2019-04-25T23:59:39.543Z,30.10
